Herk-de-Stad, Belgium
Current Conditions -  °F | °C
As of 3:13 AM on Friday 21 Nov 2014 (Local Time) from EBDT Reporting Station
Clear Clear  
Wind Chill: 36°   Ceiling: Unl
Heat Index: 36°   Visibility: 0.81mi
Dew Point: 36°   Wind: 3mph
Humidity: 100%   Direction: 50°NE
Pressure: 30.24"   Gusts: NA
Location:  50.94°N, 5.17°E
Report Text: EBDT 210213Z AUTO 05003KT 1300 NCD 02/02 Q1024 AMB
Loading
Personal Weather Stations






























Interactive Weather Map New forecast layout! Learn more

10-Day Weather Forecast

Advertisements
Track Severe Weather on mobile